Palmetto, Louisiana
Current Conditions -  °F | °C
As of 2:15 PM on Saturday 20 Dec 2014 (Local Time) from KOPL Reporting Station
Overcast Overcast  
Wind Chill: 50°   Ceiling: 1200
Heat Index: 50°   Visibility: 10mi
Dew Point: 46°   Wind: 13mph
Humidity: 85%   Direction: 30°NNE
Pressure: 30.13"   Gusts: NA
Location:  30.72°N, 91.91°W
Report Text: KOPL 202015Z AUTO 03011KT 10SM OVC012 10/08 A3013 RMK AO2 T01000076
Loading
Personal Weather Stations






























Interactive Weather Map New forecast layout! Learn more

10-Day Weather Forecast

Advertisements
Track Severe Weather on mobile